Impacts TAF Board
For situational awareness. Not to be used for flight planning purposes.
IDs:

KAUS - Austin/Bergstrom Int, TX, US

Issued at 2333 UTC 06 Jun 2020
Updated at 0209 UTC 07 Jun 2020
Potential Impact None Slight Moderate High
Time0153Z 07/03Z 07/04Z 07/05Z 07/06Z 07/07Z 07/08Z 07/09Z 07/10Z 07/11Z 07/12Z 07/13Z 07/14Z 07/15Z>>
Type OBS PRVL PRVL PRVL PRVL PRVL PRVL PRVL PRVL PRVL PRVL PRVL PRVL PRVL
VIS 10 >6 >6 >6 >6 >6 >6 >6 >6 >6 >6 >6 >6 >6
CIG -- -- -- -- -- -- -- -- -- -- -- -- -- --
Cover FEW SCT SCT SCT SCT SCT SCT SCT SCT SCT SCT SCT SCT SCT
FltCat VFR VFR VFR VFR VFR VFR VFR VFR VFR VFR VFR VFR VFR VFR
WX -- -- -- -- -- -- -- -- -- -- -- -- -- --
WDir VRB VRB VRB VRB VRB VRB VRB VRB VRB VRB VRB VRB VRB VRB
WSpd 0 4 4 4 4 4 4 4 4 4 4 4 4 4
WGst -- -- -- -- -- -- -- -- -- -- -- -- -- --
R17/35
XWnd VRB VRB VRB VRB VRB VRB VRB VRB VRB VRB VRB VRB VRB VRB
HWnd VRB VRB VRB VRB VRB VRB VRB VRB VRB VRB VRB VRB VRB VRB
Raw TAF
KAUS 062333Z 0700/0806 VRB04KT P6SM SCT050
  FM071700 03010KT P6SM FEW050


Raw METAR
KAUS 070153Z 00000KT 10SM FEW055 29/22 A2979 RMK AO2 SLP076 T02890222
KAUS 070053Z 08004KT 10SM FEW055 33/21 A2979 RMK AO2 SLP074 T03330206
KAUS 062353Z 10006KT 10SM SCT055 34/21 A2979 RMK AO2 SLP076 T03440206 10350 20328 56019

METAR Board
Radar Display
Forecast Discussion
For situational awareness. Not to be used for flight planning purposes.